createdAt,value
2019-05-22T00:00:30.504Z,87.90
2019-05-22T00:03:11.805Z,87.55
2019-05-22T00:05:48.379Z,87.12
2019-05-22T00:08:23.633Z,86.81
2019-05-22T00:10:59.983Z,87.03
2019-05-22T00:13:38.400Z,86.54
2019-05-22T00:16:15.697Z,86.31
2019-05-22T00:18:56.414Z,86.49
2019-05-22T00:21:31.826Z,86.15
2019-05-22T00:24:11.775Z,86.06
2019-05-22T00:26:47.021Z,86.18
2019-05-22T00:29:22.590Z,86.46
2019-05-22T00:32:13.724Z,86.41
2019-05-22T00:34:51.180Z,86.36
2019-05-22T00:37:30.539Z,86.26
2019-05-22T00:40:16.229Z,85.87
2019-05-22T00:43:04.052Z,85.87
2019-05-22T00:45:39.721Z,85.52
2019-05-22T00:48:21.894Z,85.51
2019-05-22T00:51:05.685Z,85.02
2019-05-22T00:53:52.849Z,84.30
2019-05-22T00:56:38.542Z,85.37
2019-05-22T00:59:35.459Z,84.53
2019-05-22T01:02:27.063Z,85.04
2019-05-22T01:05:02.154Z,84.82
2019-05-22T01:07:39.898Z,84.48
2019-05-22T01:10:15.877Z,84.62
2019-05-22T01:12:55.245Z,84.68
2019-05-22T01:15:32.327Z,85.44
2019-05-22T01:18:10.875Z,84.77
2019-05-22T01:20:49.102Z,84.67
2019-05-22T01:23:29.021Z,84.60
2019-05-22T01:26:03.492Z,84.52
2019-05-22T01:28:39.261Z,84.20
2019-05-22T01:31:22.834Z,84.40
2019-05-22T01:34:16.526Z,84.76
2019-05-22T01:36:53.368Z,84.87
2019-05-22T01:39:32.113Z,85.10
2019-05-22T01:42:10.907Z,85.31
2019-05-22T01:45:01.356Z,85.73
2019-05-22T01:47:33.905Z,85.15
2019-05-22T01:50:14.479Z,85.19
2019-05-22T01:52:51.765Z,84.95
2019-05-22T01:55:28.194Z,85.14
2019-05-22T01:58:04.449Z,84.93
2019-05-22T02:00:42.419Z,85.78
2019-05-22T02:03:18.107Z,85.24
2019-05-22T02:05:54.526Z,85.31
2019-05-22T02:08:31.038Z,85.50
2019-05-22T02:11:08.666Z,85.28
2019-05-22T02:13:52.682Z,85.77
2019-05-22T02:16:29.365Z,85.15
2019-05-22T02:19:05.458Z,84.60
2019-05-22T02:21:41.141Z,84.95
2019-05-22T02:24:18.952Z,84.65
2019-05-22T02:26:56.399Z,84.78
2019-05-22T02:29:33.596Z,84.45
2019-05-22T02:32:12.031Z,84.92
2019-05-22T02:34:48.102Z,84.43
2019-05-22T02:37:30.271Z,84.69
2019-05-22T02:40:24.873Z,85.12
2019-05-22T02:43:00.565Z,84.88
2019-05-22T02:45:36.721Z,85.30
2019-05-22T02:48:14.303Z,85.29
2019-05-22T02:50:50.224Z,85.70
2019-05-22T02:53:25.918Z,85.47
2019-05-22T02:56:07.036Z,85.85
2019-05-22T02:58:42.706Z,85.72
2019-05-22T03:01:19.320Z,85.68
2019-05-22T03:03:55.333Z,86.17
2019-05-22T03:06:31.596Z,86.04
2019-05-22T03:09:20.840Z,86.47
2019-05-22T03:12:02.449Z,86.95
2019-05-22T03:14:39.236Z,87.13
2019-05-22T03:17:19.645Z,87.04
2019-05-22T03:19:54.935Z,87.03
2019-05-22T03:22:44.876Z,86.50
2019-05-22T03:25:20.137Z,87.09
2019-05-22T03:27:55.272Z,86.93
2019-05-22T03:30:38.197Z,86.52
2019-05-22T03:33:15.698Z,86.37
2019-05-22T03:35:53.995Z,86.35
2019-05-22T03:38:31.424Z,86.70
2019-05-22T03:41:09.703Z,86.99
2019-05-22T03:43:45.450Z,87.20
2019-05-22T03:46:25.593Z,86.76
2019-05-22T03:49:01.717Z,86.82
2019-05-22T03:51:38.506Z,86.72
2019-05-22T03:54:15.172Z,86.81
2019-05-22T03:56:50.594Z,86.41
2019-05-22T03:59:26.983Z,87.13
2019-05-22T04:02:02.120Z,87.07
2019-05-22T04:04:40.762Z,87.53
2019-05-22T04:07:17.118Z,86.26
2019-05-22T04:09:53.086Z,86.26
2019-05-22T04:12:29.700Z,85.79
2019-05-22T04:15:08.075Z,85.76
2019-05-22T04:17:46.023Z,86.27
2019-05-22T04:20:21.735Z,86.87
2019-05-22T04:22:58.114Z,86.76
2019-05-22T04:25:33.639Z,86.96
2019-05-22T04:28:08.926Z,87.24
2019-05-22T04:30:47.146Z,87.17
2019-05-22T04:33:27.312Z,88.36
2019-05-22T04:36:03.311Z,88.43
2019-05-22T04:38:40.275Z,88.54
2019-05-22T04:41:15.671Z,87.90
2019-05-22T04:43:53.756Z,88.07
2019-05-22T04:46:30.210Z,87.76
2019-05-22T04:49:05.516Z,87.46
2019-05-22T04:51:40.801Z,86.93
2019-05-22T04:54:16.089Z,86.67
2019-05-22T04:56:51.812Z,86.98
2019-05-22T04:59:27.061Z,87.36
2019-05-22T05:02:05.058Z,86.79
2019-05-22T05:04:41.919Z,87.29
2019-05-22T05:07:19.311Z,86.80
2019-05-22T05:09:55.525Z,86.40
2019-05-22T05:12:31.050Z,86.72
2019-05-22T05:15:10.542Z,86.38
2019-05-22T05:17:46.087Z,86.00
2019-05-22T05:20:22.737Z,86.21
2019-05-22T05:22:58.092Z,87.05
2019-05-22T05:25:34.112Z,85.79
2019-05-22T05:28:11.497Z,85.78
2019-05-22T05:30:46.897Z,85.77
2019-05-22T05:33:23.191Z,85.38
2019-05-22T05:35:59.861Z,84.92
2019-05-22T05:38:41.523Z,85.41
2019-05-22T05:41:16.700Z,85.63
2019-05-22T05:43:54.511Z,85.39
2019-05-22T05:46:29.893Z,86.00
2019-05-22T05:49:05.572Z,86.24
2019-05-22T05:51:43.306Z,86.25
2019-05-22T05:54:19.464Z,86.79
2019-05-22T05:56:57.474Z,86.74
2019-05-22T05:59:34.466Z,86.43
2019-05-22T06:02:10.073Z,87.42
2019-05-22T06:04:54.643Z,86.55
2019-05-22T06:07:36.892Z,86.75
2019-05-22T06:10:29.733Z,86.67
2019-05-22T06:13:06.673Z,86.28
2019-05-22T06:16:15.559Z,86.22
2019-05-22T06:18:57.198Z,86.67
2019-05-22T06:21:32.535Z,86.51
2019-05-22T06:24:37.544Z,86.55
2019-05-22T06:27:16.044Z,86.68
2019-05-22T06:30:07.105Z,86.43
2019-05-22T06:32:57.958Z,85.78
2019-05-22T06:35:36.562Z,85.89
2019-05-22T06:38:47.505Z,85.86
2019-05-22T06:41:25.104Z,86.69
2019-05-22T06:44:26.079Z,85.80
2019-05-22T06:47:01.952Z,86.06
2019-05-22T06:49:43.431Z,85.92
2019-05-22T06:52:22.031Z,86.18
2019-05-22T06:54:58.722Z,85.88
2019-05-22T06:57:34.784Z,84.83
2019-05-22T07:00:16.214Z,85.50
2019-05-22T07:02:52.020Z,84.10
2019-05-22T07:05:33.602Z,84.51
2019-05-22T07:08:09.664Z,84.50
2019-05-22T07:10:46.753Z,84.65
2019-05-22T07:13:36.232Z,84.23
2019-05-22T07:16:30.607Z,85.21
2019-05-22T07:19:10.107Z,83.90
2019-05-22T07:21:47.116Z,84.09
2019-05-22T07:24:26.592Z,83.18
2019-05-22T07:27:32.111Z,82.93
2019-05-22T07:30:11.417Z,82.37
2019-05-22T07:32:54.189Z,81.69
2019-05-22T07:35:49.808Z,82.64
2019-05-22T07:38:11.254Z,81.49
2019-05-22T07:40:55.776Z,81.62
2019-05-22T07:43:40.894Z,81.89
2019-05-22T07:46:14.607Z,81.69
2019-05-22T07:48:51.740Z,81.99
2019-05-22T07:51:31.499Z,80.89
2019-05-22T07:54:08.777Z,79.56
2019-05-22T07:56:44.795Z,80.47
2019-05-22T07:59:22.098Z,80.60
2019-05-22T08:01:57.833Z,80.35
2019-05-22T08:04:33.183Z,79.12
2019-05-22T08:07:10.871Z,78.72
2019-05-22T08:09:50.026Z,79.82
2019-05-22T08:12:25.592Z,80.33
2019-05-22T08:15:01.386Z,79.78
2019-05-22T08:17:37.120Z,79.22
2019-05-22T08:20:13.204Z,78.94
2019-05-22T08:22:57.382Z,77.84
2019-05-22T08:25:32.944Z,78.09
2019-05-22T08:28:14.043Z,78.66
2019-05-22T08:30:49.472Z,78.47
2019-05-22T08:33:26.096Z,78.12
2019-05-22T08:36:09.923Z,77.93
2019-05-22T08:38:45.278Z,78.42
2019-05-22T08:41:27.962Z,77.94
2019-05-22T08:44:16.174Z,77.75
2019-05-22T08:46:40.675Z,77.74
2019-05-22T08:49:17.851Z,77.85
2019-05-22T08:52:00.156Z,77.31
2019-05-22T08:54:41.741Z,77.46
2019-05-22T08:57:20.218Z,77.73
2019-05-22T08:59:55.571Z,78.15
2019-05-22T09:02:37.169Z,77.72
2019-05-22T09:05:15.962Z,77.99
2019-05-22T09:07:56.880Z,78.56
2019-05-22T09:10:33.506Z,77.94
2019-05-22T09:13:12.493Z,78.50
2019-05-22T09:15:48.537Z,78.54
2019-05-22T09:18:25.446Z,77.87
2019-05-22T09:21:01.151Z,78.25
2019-05-22T09:23:44.644Z,78.11
2019-05-22T09:26:20.761Z,77.75
2019-05-22T09:28:57.390Z,77.12
2019-05-22T09:31:37.931Z,77.37
2019-05-22T09:34:14.327Z,77.53
2019-05-22T09:36:53.196Z,76.93
2019-05-22T09:39:48.847Z,77.11
2019-05-22T09:42:39.958Z,76.75
2019-05-22T09:45:19.584Z,76.93
2019-05-22T09:47:55.251Z,76.69
2019-05-22T09:50:36.390Z,76.34
2019-05-22T09:53:11.776Z,75.60
2019-05-22T09:55:53.914Z,76.13
2019-05-22T09:58:30.399Z,75.49
2019-05-22T10:01:11.522Z,75.47
2019-05-22T10:03:51.911Z,75.37
2019-05-22T10:06:27.653Z,74.98
2019-05-22T10:09:04.004Z,75.46
2019-05-22T10:11:39.180Z,76.09
2019-05-22T10:14:14.906Z,76.57
2019-05-22T10:16:55.323Z,76.50
2019-05-22T10:19:30.930Z,76.71
2019-05-22T10:22:12.831Z,75.68
2019-05-22T10:24:52.126Z,75.06
2019-05-22T10:27:28.989Z,75.34
2019-05-22T10:30:14.223Z,75.14
2019-05-22T10:32:50.992Z,75.66
2019-05-22T10:35:34.091Z,75.23
2019-05-22T10:38:11.550Z,74.67
2019-05-22T10:40:58.580Z,74.99
2019-05-22T10:43:31.354Z,74.95
2019-05-22T10:46:07.751Z,75.07
2019-05-22T10:48:43.362Z,75.88
2019-05-22T10:51:24.455Z,75.45
2019-05-22T10:54:02.240Z,76.28
2019-05-22T10:56:38.611Z,76.94
2019-05-22T10:59:14.116Z,76.25
2019-05-22T11:01:52.613Z,75.75
2019-05-22T11:04:29.934Z,76.46
2019-05-22T11:07:10.994Z,76.03
2019-05-22T11:09:46.826Z,75.97
2019-05-22T11:12:24.621Z,75.31
2019-05-22T11:15:02.131Z,75.71
2019-05-22T11:17:38.984Z,76.46
2019-05-22T11:20:14.833Z,75.99
2019-05-22T11:22:50.582Z,76.98
2019-05-22T11:25:25.883Z,76.43
2019-05-22T11:31:06.894Z,76.15
2019-05-22T11:33:46.953Z,75.45
2019-05-22T11:36:25.280Z,75.45
2019-05-22T11:39:17.170Z,74.68
2019-05-22T11:42:02.571Z,75.28
2019-05-22T11:45:01.100Z,74.74
2019-05-22T11:47:39.480Z,74.54
2019-05-22T11:50:20.218Z,74.00
2019-05-22T11:53:09.662Z,74.14
2019-05-22T11:55:53.631Z,75.22
2019-05-22T11:58:35.179Z,74.96
2019-05-22T12:01:11.642Z,75.64
2019-05-22T12:03:47.897Z,75.89
2019-05-22T12:06:35.628Z,76.60
2019-05-22T12:09:28.900Z,75.91
2019-05-22T12:12:11.321Z,76.03
2019-05-22T12:14:51.324Z,76.30
2019-05-22T12:17:37.568Z,75.97
2019-05-22T12:20:07.520Z,75.84
2019-05-22T12:22:43.833Z,76.30
2019-05-22T12:25:25.889Z,76.39
2019-05-22T12:28:15.411Z,76.38
2019-05-22T12:30:51.211Z,75.73
2019-05-22T12:33:27.577Z,75.26
2019-05-22T12:36:06.690Z,75.60
2019-05-22T12:38:56.671Z,75.43
2019-05-22T12:41:43.417Z,76.66
2019-05-22T12:44:22.818Z,76.60
2019-05-22T12:47:00.916Z,76.44
2019-05-22T12:49:41.901Z,76.67
2019-05-22T12:52:22.502Z,76.23
2019-05-22T12:55:15.350Z,76.30
2019-05-22T12:57:54.939Z,76.38
2019-05-22T13:00:34.182Z,76.17
2019-05-22T13:03:25.905Z,76.07
2019-05-22T13:06:11.314Z,76.06
2019-05-22T13:08:49.292Z,76.57
2019-05-22T13:11:26.376Z,76.54
2019-05-22T13:14:01.715Z,76.99
2019-05-22T13:16:42.275Z,77.78
2019-05-22T13:19:18.228Z,77.32
2019-05-22T13:21:54.591Z,78.34
2019-05-22T13:24:30.978Z,78.95
2019-05-22T13:27:07.987Z,78.81
2019-05-22T13:29:46.317Z,80.78
2019-05-22T13:32:22.810Z,80.30
2019-05-22T13:35:01.742Z,81.00
2019-05-22T13:37:48.725Z,80.89
2019-05-22T13:40:30.837Z,80.23
2019-05-22T13:43:14.644Z,81.11
2019-05-22T13:45:51.016Z,81.54
2019-05-22T13:48:46.316Z,82.32
2019-05-22T13:51:25.562Z,83.24
2019-05-22T13:54:05.509Z,82.39
2019-05-22T13:56:58.502Z,83.14
2019-05-22T13:59:43.989Z,84.03
2019-05-22T14:02:31.570Z,81.63
2019-05-22T14:05:07.590Z,81.49
2019-05-22T14:07:43.129Z,81.80
2019-05-22T14:10:19.941Z,81.62
2019-05-22T14:12:56.195Z,81.75
2019-05-22T14:15:49.918Z,81.39
2019-05-22T14:18:29.774Z,80.88
2019-05-22T14:21:09.195Z,80.94
2019-05-22T14:23:51.850Z,79.96
2019-05-22T14:26:32.289Z,80.26
2019-05-22T14:29:21.067Z,80.64
2019-05-22T14:32:01.670Z,80.03
2019-05-22T14:34:38.809Z,79.47
2019-05-22T14:37:25.559Z,78.99
2019-05-22T14:40:18.603Z,80.55
2019-05-22T14:43:02.270Z,79.46
2019-05-22T14:45:51.034Z,79.04
2019-05-22T14:48:33.237Z,78.36
2019-05-22T14:51:12.509Z,78.22
2019-05-22T14:53:59.142Z,78.74
2019-05-22T14:56:38.576Z,78.87
2019-05-22T14:59:17.276Z,79.43
2019-05-22T15:02:01.314Z,80.12
2019-05-22T15:04:53.508Z,79.81
2019-05-22T15:07:42.442Z,79.94
2019-05-22T15:10:22.789Z,80.00
2019-05-22T15:13:22.343Z,79.48
2019-05-22T15:16:04.869Z,79.45
2019-05-22T15:18:41.953Z,79.42
2019-05-22T15:27:43.718Z,79.34
2019-05-22T15:30:22.470Z,78.50
2019-05-22T15:33:13.156Z,78.77
2019-05-22T15:35:49.976Z,78.78
2019-05-22T15:38:31.382Z,78.42
2019-05-22T15:41:20.911Z,78.86
2019-05-22T15:44:03.262Z,78.27
2019-05-22T15:49:41.922Z,77.99
2019-05-22T15:55:46.683Z,77.29
2019-05-22T15:58:27.344Z,76.69
2019-05-22T16:01:11.649Z,77.04
2019-05-22T16:03:57.988Z,76.48
2019-05-22T16:10:09.592Z,76.64
2019-05-22T16:12:56.506Z,76.89
2019-05-22T16:21:51.874Z,76.44
2019-05-22T16:24:32.629Z,76.07
2019-05-22T16:27:24.410Z,76.34
2019-05-22T16:30:10.247Z,75.78
2019-05-22T16:33:32.514Z,76.21
2019-05-22T16:36:30.579Z,76.54
2019-05-22T16:39:19.888Z,76.65
2019-05-22T16:42:12.297Z,76.89
2019-05-22T16:48:03.718Z,76.27
2019-05-22T16:51:06.250Z,76.01
2019-05-22T17:07:37.858Z,75.88
2019-05-22T17:10:16.644Z,76.23
2019-05-22T17:13:00.627Z,75.86
2019-05-22T17:15:41.172Z,75.59
2019-05-22T17:18:21.501Z,75.56
2019-05-22T17:20:59.892Z,74.76
2019-05-22T17:23:41.473Z,75.06
2019-05-22T17:26:19.279Z,75.25
2019-05-22T17:28:56.907Z,75.27
2019-05-22T17:31:34.507Z,74.61
2019-05-22T17:34:11.334Z,74.74
2019-05-22T17:36:48.535Z,74.89
2019-05-22T17:39:24.623Z,74.78
2019-05-22T17:42:05.004Z,74.80
2019-05-22T17:44:41.054Z,74.93
2019-05-22T17:47:17.668Z,74.64
2019-05-22T17:49:58.028Z,74.98
2019-05-22T17:52:37.642Z,75.14
2019-05-22T17:55:20.621Z,75.09
2019-05-22T17:58:11.484Z,75.15
2019-05-22T18:00:49.453Z,74.96
2019-05-22T18:03:26.132Z,75.10
2019-05-22T18:06:06.257Z,75.49
2019-05-22T18:08:44.764Z,75.78
2019-05-22T18:11:30.042Z,75.77
2019-05-22T18:14:08.131Z,75.95
2019-05-22T18:16:49.816Z,76.06
2019-05-22T18:19:25.816Z,75.89
2019-05-22T18:22:02.306Z,76.22
2019-05-22T18:28:14.152Z,76.81
2019-05-22T18:33:50.053Z,76.76
2019-05-22T18:36:33.308Z,76.79
2019-05-22T18:39:13.648Z,76.98
2019-05-22T18:41:51.745Z,76.37
2019-05-22T18:44:26.897Z,77.20
2019-05-22T18:47:08.979Z,77.13
2019-05-22T18:49:51.252Z,77.11
2019-05-22T18:52:40.727Z,76.96
2019-05-22T18:55:19.238Z,76.34
2019-05-22T18:57:57.898Z,75.99
2019-05-22T19:00:36.410Z,76.05
2019-05-22T19:03:17.057Z,75.50
2019-05-22T19:05:54.265Z,75.56
2019-05-22T19:08:42.077Z,75.42
2019-05-22T19:11:20.239Z,75.42
2019-05-22T19:14:04.146Z,75.32
2019-05-22T19:16:50.433Z,75.30
2019-05-22T19:19:53.069Z,74.66
2019-05-22T19:22:58.369Z,74.77
2019-05-22T19:25:34.319Z,74.40
2019-05-22T19:28:21.585Z,74.20
2019-05-22T19:31:02.857Z,74.14
2019-05-22T19:33:43.936Z,74.14
2019-05-22T19:36:40.023Z,73.41
2019-05-22T19:39:26.994Z,73.77
2019-05-22T19:42:11.490Z,73.26
2019-05-22T19:44:50.495Z,72.75
2019-05-22T19:47:48.691Z,72.24
2019-05-22T19:50:22.698Z,72.80
2019-05-22T19:53:15.695Z,72.72
2019-05-22T19:55:48.936Z,72.18
2019-05-22T20:05:29.656Z,71.48
2019-05-22T20:08:11.227Z,71.28
2019-05-22T20:11:00.397Z,70.97
2019-05-22T20:13:47.474Z,71.39
2019-05-22T20:16:37.673Z,71.70
2019-05-22T20:19:14.401Z,71.28
2019-05-22T20:22:31.310Z,71.53
2019-05-22T20:25:30.963Z,71.24
2019-05-22T20:28:36.210Z,70.92
2019-05-22T20:34:29.022Z,70.63
2019-05-22T20:37:07.224Z,70.51
2019-05-22T20:39:52.262Z,70.59
2019-05-22T20:42:28.603Z,70.00
2019-05-22T20:45:06.023Z,70.34
2019-05-22T20:47:48.233Z,69.69
2019-05-22T20:50:25.573Z,69.20
2019-05-22T20:53:01.490Z,69.51
2019-05-22T20:55:39.779Z,69.19
2019-05-22T20:58:17.908Z,69.31
2019-05-22T21:00:58.859Z,69.22
2019-05-22T21:03:34.365Z,69.26
2019-05-22T21:06:13.011Z,69.38
2019-05-22T21:08:48.540Z,69.46
2019-05-22T21:11:26.174Z,69.61
2019-05-22T21:14:01.835Z,69.65
2019-05-22T21:16:37.416Z,70.10
2019-05-22T21:19:16.781Z,70.01
2019-05-22T21:21:52.996Z,69.90
2019-05-22T21:24:29.259Z,70.45
2019-05-22T21:27:06.558Z,68.76
2019-05-22T21:29:43.096Z,69.49
2019-05-22T21:32:19.289Z,69.61
2019-05-22T21:34:55.626Z,69.71
2019-05-22T21:37:32.435Z,68.55
2019-05-22T21:40:09.116Z,69.23
2019-05-22T21:42:47.039Z,69.54
2019-05-22T21:45:24.538Z,69.81
2019-05-22T21:48:06.909Z,69.15
2019-05-22T21:50:42.902Z,69.28
2019-05-22T21:53:19.757Z,69.08
2019-05-22T21:56:04.322Z,69.01
2019-05-22T21:58:35.161Z,70.38
2019-05-22T22:01:12.496Z,70.10
2019-05-22T22:03:55.989Z,70.77
2019-05-22T22:06:33.268Z,69.05
2019-05-22T22:09:09.156Z,70.06
2019-05-22T22:11:46.624Z,69.61
2019-05-22T22:14:22.759Z,69.82
2019-05-22T22:17:00.631Z,70.20
2019-05-22T22:19:38.603Z,69.37
2019-05-22T22:22:18.052Z,70.18
2019-05-22T22:24:53.495Z,70.71
2019-05-22T22:27:32.701Z,70.71
2019-05-22T22:30:11.944Z,69.93
2019-05-22T22:32:47.467Z,69.46
2019-05-22T22:35:27.144Z,70.13
2019-05-22T22:38:06.387Z,70.90
2019-05-22T22:40:43.154Z,70.78
2019-05-22T22:43:20.917Z,70.84
2019-05-22T22:45:59.641Z,71.11
2019-05-22T22:48:38.482Z,71.12
2019-05-22T22:51:15.513Z,71.13
2019-05-22T22:53:51.939Z,71.67
2019-05-22T22:56:27.445Z,71.64
2019-05-22T22:59:03.823Z,72.20
2019-05-22T23:01:42.239Z,72.28
2019-05-22T23:04:18.481Z,72.19
2019-05-22T23:06:55.175Z,72.47
2019-05-22T23:09:32.198Z,72.74
2019-05-22T23:12:08.107Z,72.62
2019-05-22T23:14:47.255Z,72.44
2019-05-22T23:17:22.594Z,72.87
2019-05-22T23:19:56.667Z,72.61
2019-05-22T23:22:31.779Z,72.85
2019-05-22T23:25:07.083Z,72.79
2019-05-22T23:27:43.032Z,72.93
2019-05-22T23:30:21.044Z,72.61
2019-05-22T23:32:59.456Z,72.59
2019-05-22T23:35:36.446Z,72.93
2019-05-22T23:38:11.988Z,73.13
2019-05-22T23:40:47.217Z,73.17
2019-05-22T23:43:22.336Z,73.02
2019-05-22T23:45:59.069Z,72.78
2019-05-22T23:48:35.052Z,72.75
2019-05-22T23:51:10.414Z,72.84
2019-05-22T23:53:45.975Z,72.93
2019-05-22T23:56:22.720Z,72.91
2019-05-22T23:58:58.864Z,72.63
